Terminal Aerodrome Forecast
Issued by NWS Pocatello, ID

Home | Current Version | Previous Version | Text Only | Print | Product List | Glossary On
Versions: 1 2 3 4 5 6 7 8 9 10 11 12 13 14 15
000
FTUS45 KPIH 221100
TAFBYI
TAF
KBYI 221120Z 2212/2312 VRB06KT P6SM -SHRA VCTS SCT040 BKN080CB
      OVC110
     FM221800 18010KT P6SM -SHRA VCTS SCT070CB BKN100 BKN180
     FM222100 27015KT P6SM -SHRA VCTS BKN070CB BKN110 OVC180
     FM230000 28010KT P6SM VCTS FEW060CB SCT110 SCT180
     FM230300 20006KT P6SM VCSH BKN080=

USA.gov is the U.S. government's official web portal to all federal, state and local government web resources and services.